Time;durP1;ratioP1;P1;durP2;ratioP2;P2;SDS_P1;SDS_P2;PMS_P1;PMS_P2;Temp;Humidity;BMP_temperature;BMP_pressure;BME280_temperature;BME280_humidity;BME280_pressure;Samples;Min_cycle;Max_cycle;Signal;HPM_P1;HPM_P2
2023/02/19 00:01:28;;;;;;;2.58;2.10;;;8.80;99.90;;;;;;5013791;28;20038;-64
2023/02/19 00:03:56;;;;;;;3.45;2.10;;;8.80;99.90;;;;;;5015650;28;20037;-64
2023/02/19 00:06:25;;;;;;;6.20;3.53;;;8.80;99.90;;;;;;5009602;28;20030;-64
2023/02/19 00:08:50;;;;;;;4.38;2.90;;;8.80;99.90;;;;;;5020646;28;20021;-63
2023/02/19 00:11:18;;;;;;;4.18;2.60;;;8.80;99.90;;;;;;5016497;28;20142;-63
2023/02/19 00:13:47;;;;;;;4.07;2.80;;;8.80;99.90;;;;;;5015833;28;20139;-63
2023/02/19 00:16:21;;;;;;;6.50;2.30;;;8.90;99.90;;;;;;5015210;28;20083;-64
2023/02/19 00:18:47;;;;;;;4.78;3.03;;;8.80;99.90;;;;;;5013079;28;20025;-64
2023/02/19 00:21:14;;;;;;;2.75;2.20;;;8.80;99.90;;;;;;5014058;28;20033;-63
2023/02/19 00:23:40;;;;;;;3.90;2.58;;;8.80;99.90;;;;;;5011220;28;20093;-64
2023/02/19 00:26:11;;;;;;;4.15;2.67;;;8.80;99.90;;;;;;5013435;28;20037;-63
2023/02/19 00:28:39;;;;;;;4.15;2.42;;;8.80;99.90;;;;;;5015897;28;20071;-64
2023/02/19 00:31:32;;;;;;;4.38;2.63;;;8.80;99.90;;;;;;5013867;28;20116;-63
2023/02/19 00:34:00;;;;;;;5.75;3.38;;;8.80;99.90;;;;;;5015101;28;20057;-64
2023/02/19 00:36:27;;;;;;;3.80;2.47;;;8.70;99.90;;;;;;5029679;28;20103;-64
2023/02/19 00:38:53;;;;;;;3.33;2.45;;;8.70;99.90;;;;;;5016351;28;20032;-64
2023/02/19 00:41:20;;;;;;;3.05;2.10;;;8.70;99.90;;;;;;5014679;28;20042;-63
2023/02/19 00:43:52;;;;;;;4.85;2.20;;;8.70;99.90;;;;;;5014642;28;20044;-64
2023/02/19 00:46:27;;;;;;;3.25;2.35;;;8.70;99.90;;;;;;5014713;28;20037;-64
2023/02/19 00:48:53;;;;;;;2.05;1.67;;;8.70;99.90;;;;;;5021182;28;20827;-63
2023/02/19 00:51:21;;;;;;;4.18;2.00;;;8.70;99.90;;;;;;5020721;28;20064;-64
2023/02/19 00:53:47;;;;;;;2.42;1.80;;;8.60;99.90;;;;;;5016043;28;20037;-63
2023/02/19 00:56:13;;;;;;;4.50;1.80;;;8.70;99.90;;;;;;5014955;28;20045;-73
2023/02/19 00:58:39;;;;;;;2.92;1.40;;;8.60;99.90;;;;;;5016887;28;20045;-64
2023/02/19 01:01:06;;;;;;;4.13;1.77;;;8.60;99.90;;;;;;5012921;28;20034;-65
2023/02/19 01:03:33;;;;;;;1.50;1.30;;;8.60;99.90;;;;;;5011878;28;20033;-65
2023/02/19 01:05:59;;;;;;;2.83;1.25;;;8.50;99.90;;;;;;5014147;28;20753;-65
2023/02/19 01:08:26;;;;;;;1.67;1.40;;;8.60;99.90;;;;;;5005183;28;20858;-65
2023/02/19 01:10:52;;;;;;;2.33;1.25;;;8.50;99.90;;;;;;5010508;28;20030;-65
2023/02/19 01:13:19;;;;;;;3.53;1.48;;;8.50;99.90;;;;;;5012823;28;20404;-65
2023/02/19 01:15:44;;;;;;;2.75;1.40;;;8.50;99.90;;;;;;5012356;28;20064;-65
2023/02/19 01:18:10;;;;;;;1.25;0.98;;;8.50;99.90;;;;;;5007752;28;20033;-65
2023/02/19 01:20:41;;;;;;;2.55;1.15;;;8.40;99.90;;;;;;5013190;28;20025;-65
2023/02/19 01:23:07;;;;;;;1.60;1.05;;;8.40;99.90;;;;;;5012685;28;20161;-65
2023/02/19 01:25:33;;;;;;;1.73;1.27;;;8.40;99.90;;;;;;5010306;28;20033;-65
2023/02/19 01:27:58;;;;;;;3.15;1.02;;;8.30;99.90;;;;;;5010995;28;20042;-66
2023/02/19 01:30:24;;;;;;;2.03;0.95;;;8.30;99.90;;;;;;5009650;28;20091;-65
2023/02/19 01:32:50;;;;;;;2.08;0.98;;;8.30;99.90;;;;;;5010284;28;20025;-65
2023/02/19 01:35:17;;;;;;;2.80;1.17;;;8.30;99.90;;;;;;5016388;28;20041;-66
2023/02/19 01:37:43;;;;;;;1.42;0.98;;;8.30;99.90;;;;;;5014001;28;20068;-65
2023/02/19 01:40:09;;;;;;;1.52;0.80;;;8.20;99.90;;;;;;5010122;28;20029;-65
2023/02/19 01:42:35;;;;;;;2.00;0.82;;;8.20;99.90;;;;;;5011889;28;20122;-65
2023/02/19 01:45:21;;;;;;;3.13;1.05;;;8.20;99.90;;;;;;5010642;28;20564;-65
2023/02/19 01:47:52;;;;;;;1.98;0.70;;;8.20;99.90;;;;;;5014036;28;20121;-65
2023/02/19 01:50:18;;;;;;;2.65;1.08;;;8.20;99.90;;;;;;5008455;28;20041;-65
2023/02/19 01:52:44;;;;;;;5.10;1.27;;;8.20;99.90;;;;;;5010535;28;20048;-65
2023/02/19 01:55:12;;;;;;;2.90;1.13;;;8.20;99.90;;;;;;5011921;28;20037;-65
2023/02/19 01:57:43;;;;;;;3.97;0.98;;;8.10;99.90;;;;;;5010161;28;20029;-65
2023/02/19 02:00:12;;;;;;;0.75;0.70;;;8.10;99.90;;;;;;5012551;28;20558;-65
2023/02/19 02:02:41;;;;;;;2.17;0.80;;;8.10;99.90;;;;;;5014344;28;20057;-65
2023/02/19 02:05:16;;;;;;;1.58;0.73;;;8.10;99.90;;;;;;5006814;28;20776;-65
2023/02/19 02:10:27;;;;;;;1.55;0.90;;;8.10;99.90;;;;;;5007555;28;20042;-65
2023/02/19 02:12:57;;;;;;;2.17;0.88;;;8.10;99.90;;;;;;5009835;28;20465;-65
2023/02/19 02:15:41;;;;;;;1.75;0.90;;;8.00;99.90;;;;;;5006840;28;20034;-64
2023/02/19 02:18:19;;;;;;;1.30;0.90;;;8.00;99.90;;;;;;5011256;28;20033;-65
2023/02/19 02:21:27;;;;;;;2.50;0.80;;;8.00;99.90;;;;;;5010735;28;20029;-65
2023/02/19 02:24:06;;;;;;;2.35;0.60;;;8.00;99.90;;;;;;4985077;28;20140;-65
2023/02/19 02:26:54;;;;;;;3.22;0.98;;;8.00;99.90;;;;;;5010699;28;20048;-65
2023/02/19 02:29:58;;;;;;;3.25;1.00;;;8.00;99.90;;;;;;5016240;28;20030;-66
2023/02/19 02:32:26;;;;;;;1.85;0.90;;;8.00;99.90;;;;;;5014095;28;20037;-65
2023/02/19 02:34:56;;;;;;;3.08;1.13;;;8.00;99.90;;;;;;5010845;28;20064;-65
2023/02/19 02:37:25;;;;;;;3.33;0.73;;;8.00;99.90;;;;;;5011397;28;20132;-65
2023/02/19 02:39:52;;;;;;;1.27;0.88;;;8.00;99.90;;;;;;5014327;28;20030;-65
2023/02/19 02:42:28;;;;;;;5.85;0.80;;;8.00;99.90;;;;;;5008864;28;20037;-65
2023/02/19 02:45:35;;;;;;;2.60;0.90;;;8.00;99.90;;;;;;5010132;28;20037;-66
2023/02/19 02:48:25;;;;;;;1.90;1.00;;;7.90;99.90;;;;;;4962468;28;20215;-65
2023/02/19 02:51:13;;;;;;;2.67;1.10;;;7.90;99.90;;;;;;5011236;28;20033;-65
2023/02/19 02:56:40;;;;;;;4.63;1.52;;;7.90;99.90;;;;;;5006899;28;20048;-65
2023/02/19 02:59:10;;;;;;;3.38;1.08;;;7.90;99.90;;;;;;5012309;28;20109;-66
2023/02/19 03:02:12;;;;;;;2.90;1.20;;;7.90;99.90;;;;;;5015718;28;20045;-65
2023/02/19 03:07:37;;;;;;;1.33;0.88;;;7.90;99.90;;;;;;5014994;28;20552;-65
2023/02/19 03:10:07;;;;;;;4.00;1.38;;;7.90;99.90;;;;;;5013823;28;20564;-65
2023/02/19 03:21:05;;;;;;;5.30;3.45;;;7.80;99.90;;;;;;5019315;28;21074;-65
2023/02/19 03:26:20;;;;;;;9.65;3.70;;;7.80;99.90;;;;;;5015082;28;20103;-64
2023/02/19 03:31:40;;;;;;;8.43;4.22;;;7.80;99.90;;;;;;5013550;28;20030;-66
2023/02/19 03:34:14;;;;;;;6.32;3.90;;;7.80;99.90;;;;;;5010972;28;20038;-65
2023/02/19 03:36:49;;;;;;;4.53;2.70;;;7.70;99.90;;;;;;5028530;28;20517;-65
2023/02/19 03:39:21;;;;;;;5.15;2.50;;;7.70;99.90;;;;;;5016936;28;20030;-65
2023/02/19 03:41:47;;;;;;;4.13;2.40;;;7.70;99.90;;;;;;5012932;28;20029;-65
2023/02/19 03:44:22;;;;;;;4.53;2.13;;;7.60;99.90;;;;;;5015107;28;20038;-65
2023/02/19 03:47:47;;;;;;;5.72;2.45;;;7.60;99.90;;;;;;5019611;28;20026;-65
2023/02/19 03:50:26;;;;;;;7.22;2.08;;;7.60;99.90;;;;;;4930329;28;20035;-65
2023/02/19 03:53:13;;;;;;;5.70;2.80;;;7.50;99.90;;;;;;4933705;28;21032;-65
2023/02/19 03:55:57;;;;;;;;;;;7.40;99.90;;;;;;4985172;28;20038;-65
2023/02/19 03:58:29;;;;;;;3.53;1.92;;;7.40;99.90;;;;;;5016077;28;20652;-65
2023/02/19 04:01:04;;;;;;;6.85;1.98;;;7.30;99.90;;;;;;5012453;28;20537;-66
2023/02/19 04:03:38;;;;;;;5.50;1.77;;;7.20;99.90;;;;;;5010316;28;20037;-65
2023/02/19 04:06:13;;;;;;;3.42;1.63;;;7.20;99.90;;;;;;5014830;28;20186;-65
2023/02/19 04:08:43;;;;;;;2.85;1.60;;;7.10;99.90;;;;;;5030652;28;20044;-65
2023/02/19 04:11:10;;;;;;;4.55;1.92;;;7.10;99.90;;;;;;5011622;28;20040;-65
2023/02/19 04:13:48;;;;;;;3.83;1.70;;;7.00;99.70;;;;;;5013853;28;20102;-65
2023/02/19 04:16:19;;;;;;;6.28;1.95;;;7.00;99.80;;;;;;5013202;28;20045;-65
2023/02/19 04:18:48;;;;;;;4.85;2.28;;;7.00;99.90;;;;;;5016146;28;20044;-65
2023/02/19 04:21:15;;;;;;;4.82;1.67;;;6.90;99.90;;;;;;5010228;28;20041;-65
2023/02/19 04:23:43;;;;;;;5.88;1.98;;;6.90;99.90;;;;;;5007757;28;20037;-65
2023/02/19 04:26:11;;;;;;;7.95;2.08;;;6.90;99.90;;;;;;5013397;28;20048;-65
2023/02/19 04:28:37;;;;;;;6.40;1.80;;;6.90;99.80;;;;;;5017598;28;20029;-65
2023/02/19 04:31:04;;;;;;;6.47;1.85;;;6.80;99.80;;;;;;5015342;28;20604;-65
2023/02/19 04:33:29;;;;;;;3.83;1.85;;;6.70;99.90;;;;;;5012125;28;20038;-65
2023/02/19 04:35:55;;;;;;;5.25;2.22;;;6.70;99.90;;;;;;5012514;28;20140;-65
2023/02/19 04:38:21;;;;;;;2.55;1.60;;;6.70;99.70;;;;;;5013582;28;20143;-65
2023/02/19 04:40:47;;;;;;;3.30;2.03;;;6.60;99.90;;;;;;5017745;28;20036;-65
2023/02/19 04:43:13;;;;;;;4.97;2.25;;;6.60;99.90;;;;;;5017626;28;20040;-65
2023/02/19 04:45:39;;;;;;;4.38;1.88;;;6.60;99.90;;;;;;5011881;28;20374;-65
2023/02/19 04:48:05;;;;;;;6.55;2.15;;;6.60;99.90;;;;;;5016583;28;20037;-65
2023/02/19 04:50:30;;;;;;;4.38;1.88;;;6.60;99.80;;;;;;5016534;28;20049;-65
2023/02/19 04:52:56;;;;;;;4.43;1.90;;;6.60;99.90;;;;;;5018401;28;20038;-65
2023/02/19 04:55:22;;;;;;;4.60;1.00;;;6.60;99.80;;;;;;5015283;28;20108;-65
2023/02/19 04:57:48;;;;;;;4.03;1.10;;;6.50;99.70;;;;;;5017089;28;20063;-64
2023/02/19 05:00:14;;;;;;;4.68;1.50;;;6.50;99.70;;;;;;5016951;28;20958;-64
2023/02/19 05:02:40;;;;;;;2.92;1.52;;;6.50;99.80;;;;;;5015503;28;20040;-64
2023/02/19 05:05:06;;;;;;;2.33;1.38;;;6.40;99.90;;;;;;5012538;28;20900;-64
2023/02/19 05:07:32;;;;;;;4.13;1.65;;;6.40;99.70;;;;;;5009621;28;20880;-65
2023/02/19 05:09:58;;;;;;;4.68;1.23;;;6.40;99.60;;;;;;5017795;28;20040;-65
2023/02/19 05:12:25;;;;;;;2.95;1.65;;;6.40;99.60;;;;;;5012176;28;20560;-64
2023/02/19 05:14:50;;;;;;;1.90;1.10;;;6.40;99.60;;;;;;5011885;28;20107;-65
2023/02/19 05:17:16;;;;;;;5.45;1.45;;;6.30;99.60;;;;;;5011573;28;20033;-65
2023/02/19 05:19:42;;;;;;;4.35;2.20;;;6.30;99.60;;;;;;5013957;28;20694;-65
2023/02/19 05:22:08;;;;;;;4.85;1.67;;;6.30;99.80;;;;;;5010755;28;20144;-65
2023/02/19 05:24:33;;;;;;;4.95;1.40;;;6.40;99.90;;;;;;5011255;28;20049;-65
2023/02/19 05:26:59;;;;;;;2.58;1.40;;;6.30;99.90;;;;;;5009419;28;20068;-65
2023/02/19 05:29:25;;;;;;;6.85;1.67;;;6.20;99.90;;;;;;5009796;28;20034;-65
2023/02/19 05:31:51;;;;;;;3.38;1.50;;;6.20;99.90;;;;;;5014014;28;20037;-65
2023/02/19 05:34:16;;;;;;;4.28;2.10;;;6.20;99.90;;;;;;5010141;28;20049;-65
2023/02/19 05:36:42;;;;;;;5.25;1.52;;;6.20;99.90;;;;;;5014273;28;20022;-64
2023/02/19 05:39:10;;;;;;;5.85;1.67;;;6.20;99.90;;;;;;5010725;28;20029;-65
2023/02/19 05:41:37;;;;;;;2.03;1.48;;;6.20;99.90;;;;;;5012765;28;20044;-64
2023/02/19 05:44:03;;;;;;;1.73;1.10;;;6.20;99.90;;;;;;5008655;28;20038;-64
2023/02/19 05:46:30;;;;;;;6.32;1.70;;;6.20;99.90;;;;;;5002012;28;20143;-65
2023/02/19 05:48:57;;;;;;;4.57;1.33;;;6.20;99.90;;;;;;5005293;28;20754;-64
2023/02/19 05:51:24;;;;;;;2.40;1.40;;;6.20;99.90;;;;;;5008500;28;20034;-65
2023/02/19 05:53:51;;;;;;;3.88;1.90;;;6.20;99.90;;;;;;5008470;28;20037;-65
2023/02/19 05:56:32;;;;;;;3.72;1.33;;;6.20;99.90;;;;;;5009595;28;20041;-64
2023/02/19 05:59:02;;;;;;;3.63;1.30;;;6.10;99.90;;;;;;5009556;28;20106;-65
2023/02/19 06:01:29;;;;;;;3.45;1.20;;;6.10;99.90;;;;;;5007894;28;20025;-64
2023/02/19 06:03:56;;;;;;;5.75;1.23;;;6.10;99.90;;;;;;5006760;28;20052;-64
2023/02/19 06:06:22;;;;;;;3.78;1.30;;;6.10;99.90;;;;;;5007724;28;20111;-64
2023/02/19 06:08:49;;;;;;;2.10;1.10;;;6.10;99.90;;;;;;5010312;28;20036;-65
2023/02/19 06:11:16;;;;;;;2.85;1.13;;;6.10;99.90;;;;;;5012295;28;20037;-65
2023/02/19 06:13:42;;;;;;;3.97;1.23;;;6.10;99.90;;;;;;5007072;28;20485;-64
2023/02/19 06:16:08;;;;;;;4.07;1.05;;;6.10;99.90;;;;;;5011296;28;20040;-64
2023/02/19 06:18:34;;;;;;;3.33;1.38;;;6.20;99.90;;;;;;5008503;28;20041;-65
2023/02/19 06:21:01;;;;;;;5.65;1.45;;;6.10;99.90;;;;;;5011504;28;20052;-64
2023/02/19 06:23:28;;;;;;;4.30;1.27;;;6.10;99.90;;;;;;5005964;28;20099;-65
2023/02/19 06:25:53;;;;;;;4.22;1.65;;;6.10;99.90;;;;;;5010346;28;20044;-64
2023/02/19 06:28:19;;;;;;;4.57;1.40;;;6.10;99.90;;;;;;5007932;28;20037;-64
2023/02/19 06:30:45;;;;;;;2.25;1.00;;;6.10;99.90;;;;;;5011134;28;20146;-64
2023/02/19 06:33:11;;;;;;;4.03;1.52;;;6.10;99.90;;;;;;5012045;28;20107;-65
2023/02/19 06:35:36;;;;;;;5.28;1.10;;;6.10;99.90;;;;;;5011338;28;20105;-65
2023/02/19 06:38:02;;;;;;;3.88;1.77;;;6.10;99.80;;;;;;5013797;28;20033;-64
2023/02/19 06:40:28;;;;;;;9.20;2.85;;;6.10;99.90;;;;;;5006648;28;20033;-64
2023/02/19 06:42:54;;;;;;;5.57;2.03;;;6.10;99.90;;;;;;5005553;28;20136;-65
2023/02/19 06:45:20;;;;;;;5.78;2.50;;;6.10;99.90;;;;;;5010042;28;20094;-65
2023/02/19 06:47:45;;;;;;;4.88;2.10;;;6.10;99.90;;;;;;5016192;28;20148;-65
2023/02/19 06:50:11;;;;;;;5.65;2.17;;;6.10;99.90;;;;;;5010118;28;20136;-68
2023/02/19 06:52:37;;;;;;;6.18;2.20;;;6.10;99.90;;;;;;5006339;28;20141;-65
2023/02/19 06:55:03;;;;;;;6.28;2.00;;;6.10;99.90;;;;;;5008197;28;20053;-66
2023/02/19 06:57:28;;;;;;;3.85;1.73;;;6.10;99.90;;;;;;4998063;28;20022;-66
2023/02/19 06:59:54;;;;;;;4.18;2.13;;;6.20;99.90;;;;;;5007755;28;20033;-66
2023/02/19 07:02:20;;;;;;;4.00;1.83;;;6.20;99.90;;;;;;5013777;28;20035;-66
2023/02/19 07:04:46;;;;;;;8.82;2.90;;;6.20;99.90;;;;;;5009341;28;20151;-66
2023/02/19 07:07:11;;;;;;;7.43;2.20;;;6.30;99.90;;;;;;5011293;28;20283;-66
2023/02/19 07:09:37;;;;;;;6.75;2.53;;;6.20;99.90;;;;;;5008576;28;20025;-66
2023/02/19 07:12:03;;;;;;;6.18;2.20;;;6.30;99.90;;;;;;5010679;28;20033;-66
2023/02/19 07:14:30;;;;;;;5.20;1.90;;;6.30;99.90;;;;;;5007865;28;20037;-65
2023/02/19 07:16:55;;;;;;;3.33;1.83;;;6.30;99.90;;;;;;5010562;28;20025;-66
2023/02/19 07:19:21;;;;;;;7.53;2.08;;;6.40;99.90;;;;;;5009406;28;20038;-66
2023/02/19 07:21:47;;;;;;;8.25;1.80;;;6.40;99.90;;;;;;5007295;28;20064;-66
2023/02/19 07:24:13;;;;;;;6.38;1.55;;;6.40;99.90;;;;;;5008630;28;20037;-67
2023/02/19 07:26:38;;;;;;;4.07;1.90;;;6.40;99.90;;;;;;5011430;28;20033;-67
2023/02/19 07:29:04;;;;;;;20.60;9.68;;;6.50;99.90;;;;;;5013386;28;20837;-67
2023/02/19 07:31:30;;;;;;;14.07;8.30;;;6.50;99.90;;;;;;5009285;28;20038;-67
2023/02/19 07:33:56;;;;;;;6.10;3.33;;;6.60;99.90;;;;;;5008905;28;20698;-67
2023/02/19 07:36:23;;;;;;;5.65;2.22;;;6.60;99.90;;;;;;5005948;28;20147;-67
2023/02/19 07:38:58;;;;;;;3.85;2.03;;;6.60;99.90;;;;;;5006946;28;20026;-67
2023/02/19 07:41:26;;;;;;;6.82;2.33;;;6.70;99.90;;;;;;5008217;28;20041;-66
2023/02/19 07:43:55;;;;;;;4.82;2.33;;;6.60;99.90;;;;;;5013016;28;20040;-66
2023/02/19 07:46:22;;;;;;;6.90;2.33;;;6.60;99.90;;;;;;5016533;28;20072;-66
2023/02/19 07:48:48;;;;;;;4.15;2.20;;;6.60;99.90;;;;;;5014211;28;20672;-66
2023/02/19 07:51:17;;;;;;;6.07;2.42;;;6.70;99.90;;;;;;5008943;28;20041;-67
2023/02/19 07:53:44;;;;;;;5.72;1.75;;;6.70;99.90;;;;;;5008953;28;20048;-66
2023/02/19 07:56:11;;;;;;;5.25;2.22;;;6.70;99.90;;;;;;5015925;28;20879;-67
2023/02/19 07:58:38;;;;;;;5.93;2.03;;;6.80;99.90;;;;;;5016854;28;20116;-66
2023/02/19 08:01:17;;;;;;;5.20;2.45;;;6.90;99.90;;;;;;5011768;28;20038;-66
2023/02/19 08:03:43;;;;;;;5.82;2.72;;;7.10;99.90;;;;;;5015251;28;20038;-66
2023/02/19 08:06:10;;;;;;;9.32;3.22;;;7.40;99.90;;;;;;5011070;28;20885;-66
2023/02/19 08:08:37;;;;;;;13.90;2.97;;;7.60;99.40;;;;;;5014369;28;20373;-67
2023/02/19 08:13:51;;;;;;;12.38;6.07;;;7.90;98.10;;;;;;5013473;28;20033;-66
2023/02/19 08:16:18;;;;;;;5.18;2.20;;;7.90;98.00;;;;;;5015608;28;20045;-66
2023/02/19 08:18:46;;;;;;;8.45;1.92;;;7.90;97.80;;;;;;5013391;28;20677;-66
2023/02/19 08:21:12;;;;;;;3.47;1.90;;;8.00;97.60;;;;;;5010871;28;20707;-66
2023/02/19 08:23:39;;;;;;;6.15;2.28;;;8.00;97.60;;;;;;5011504;28;20021;-66
2023/02/19 08:26:05;;;;;;;6.70;2.42;;;8.00;97.60;;;;;;5011924;28;20046;-66
2023/02/19 08:28:31;;;;;;;4.45;2.40;;;8.00;97.30;;;;;;5012590;28;20117;-66
2023/02/19 08:30:59;;;;;;;6.22;1.60;;;8.10;98.00;;;;;;5015522;28;20033;-65
2023/02/19 08:33:25;;;;;;;2.22;1.30;;;8.10;97.60;;;;;;5013967;28;20838;-66
2023/02/19 08:35:51;;;;;;;5.55;1.42;;;8.30;97.30;;;;;;5011640;28;20044;-66
2023/02/19 08:38:17;;;;;;;7.70;1.70;;;8.50;97.00;;;;;;5014371;28;20056;-66
2023/02/19 08:40:43;;;;;;;4.50;1.50;;;8.60;96.90;;;;;;5006199;28;20052;-65
2023/02/19 08:43:14;;;;;;;3.70;1.67;;;8.70;96.90;;;;;;5010791;28;20025;-65
2023/02/19 08:45:41;;;;;;;2.55;1.27;;;8.70;96.90;;;;;;5009315;28;20033;-65
2023/02/19 08:48:08;;;;;;;5.57;1.35;;;8.60;95.60;;;;;;5017096;28;20071;-66
2023/02/19 08:50:35;;;;;;;4.05;1.70;;;8.50;95.40;;;;;;5010856;28;20561;-66
2023/02/19 08:53:01;;;;;;;3.30;1.25;;;8.50;95.30;;;;;;5013068;28;20033;-66
2023/02/19 08:55:27;;;;;;;5.95;1.30;;;8.40;95.90;;;;;;5016205;28;20083;-66
2023/02/19 08:57:54;;;;;;;4.20;1.30;;;8.40;96.20;;;;;;5013130;28;20294;-66
2023/02/19 09:00:22;;;;;;;5.32;1.25;;;8.40;96.30;;;;;;5010628;28;20030;-67
2023/02/19 09:02:49;;;;;;;4.78;1.15;;;8.50;96.90;;;;;;5013248;28;20029;-66
2023/02/19 09:05:15;;;;;;;3.53;0.98;;;8.60;96.50;;;;;;5011635;28;20045;-67
2023/02/19 09:07:41;;;;;;;4.32;1.00;;;8.70;96.70;;;;;;5020309;28;20117;-67
2023/02/19 09:10:10;;;;;;;4.60;1.40;;;8.90;96.10;;;;;;5017609;28;20041;-66
2023/02/19 09:12:37;;;;;;;7.13;2.10;;;9.10;96.00;;;;;;5016947;28;20037;-67
2023/02/19 09:15:04;;;;;;;5.72;1.48;;;9.40;95.20;;;;;;5012705;28;20044;-66
2023/02/19 09:17:30;;;;;;;6.70;0.88;;;9.60;94.00;;;;;;5013325;28;20030;-66
2023/02/19 09:19:55;;;;;;;5.65;1.17;;;9.70;93.60;;;;;;5013087;28;20040;-67
2023/02/19 09:22:21;;;;;;;5.88;1.38;;;9.60;92.30;;;;;;5008282;28;20042;-67
2023/02/19 09:24:47;;;;;;;3.42;1.23;;;9.80;92.20;;;;;;5014532;28;20037;-67
2023/02/19 09:27:18;;;;;;;4.22;0.90;;;9.90;92.10;;;;;;5013932;28;20038;-67
2023/02/19 09:29:44;;;;;;;3.55;0.90;;;10.10;92.40;;;;;;5012226;28;20525;-66
2023/02/19 09:32:11;;;;;;;4.90;1.00;;;10.20;92.00;;;;;;5014258;28;20037;-67
2023/02/19 09:34:37;;;;;;;4.50;0.70;;;10.20;92.20;;;;;;5012701;28;20037;-67
2023/02/19 09:37:04;;;;;;;4.20;1.38;;;10.30;92.20;;;;;;5009918;28;20063;-66
2023/02/19 09:39:30;;;;;;;1.83;0.77;;;10.40;92.30;;;;;;5013749;28;20053;-66
2023/02/19 09:42:00;;;;;;;6.18;1.10;;;10.30;91.40;;;;;;5011813;28;20072;-67
2023/02/19 09:44:35;;;;;;;5.75;1.17;;;10.40;90.30;;;;;;5010832;28;20044;-66
2023/02/19 09:47:05;;;;;;;3.80;1.05;;;10.70;90.00;;;;;;5018497;28;20060;-67
2023/02/19 09:49:40;;;;;;;3.95;0.88;;;10.80;89.00;;;;;;5013990;28;20037;-67
2023/02/19 09:52:18;;;;;;;4.07;0.70;;;10.80;87.70;;;;;;5008314;28;20425;-66
2023/02/19 09:54:45;;;;;;;3.17;0.70;;;10.80;85.80;;;;;;5011049;28;20073;-67
2023/02/19 09:57:15;;;;;;;4.20;1.20;;;10.90;88.80;;;;;;5015292;28;20033;-67
2023/02/19 09:59:47;;;;;;;5.70;1.38;;;11.50;88.40;;;;;;5015494;28;20033;-66
2023/02/19 10:02:22;;;;;;;7.90;0.93;;;12.40;82.60;;;;;;5012286;28;20037;-66
2023/02/19 10:04:50;;;;;;;6.07;1.23;;;13.30;78.80;;;;;;5015628;28;20029;-67
2023/02/19 10:07:19;;;;;;;3.30;1.00;;;13.40;76.60;;;;;;5010822;28;20042;-66
2023/02/19 10:09:51;;;;;;;2.17;0.77;;;13.30;76.10;;;;;;5009759;28;20095;-66
2023/02/19 10:12:31;;;;;;;4.93;1.25;;;12.80;75.50;;;;;;5010044;28;20454;-66
2023/02/19 10:15:27;;;;;;;3.25;1.00;;;12.20;76.60;;;;;;5007488;28;20764;-67
2023/02/19 10:17:53;;;;;;;3.33;0.90;;;11.70;80.10;;;;;;5004332;28;20089;-66
2023/02/19 10:20:25;;;;;;;2.03;0.73;;;11.20;82.50;;;;;;5012555;28;20030;-66
2023/02/19 10:23:02;;;;;;;6.95;1.10;;;11.10;85.00;;;;;;5011031;28;20753;-66
2023/02/19 10:25:29;;;;;;;4.60;1.15;;;11.30;84.20;;;;;;5011470;28;20041;-66
2023/02/19 10:28:00;;;;;;;4.18;1.00;;;11.30;83.30;;;;;;5016250;28;20040;-66
2023/02/19 10:30:32;;;;;;;3.35;1.10;;;11.10;80.70;;;;;;5015359;28;20032;-66
2023/02/19 10:32:59;;;;;;;9.18;2.97;;;11.80;83.40;;;;;;5009553;28;20041;-66
2023/02/19 10:35:25;;;;;;;13.30;4.05;;;12.80;80.30;;;;;;5007188;28;20116;-66
2023/02/19 10:37:51;;;;;;;14.02;5.30;;;13.60;76.00;;;;;;5011899;28;20022;-66
2023/02/19 10:40:20;;;;;;;5.85;1.83;;;15.30;70.20;;;;;;5007044;28;20029;-66
2023/02/19 10:42:53;;;;;;;16.65;7.15;;;16.80;62.60;;;;;;5015715;28;20036;-66
2023/02/19 10:45:23;;;;;;;8.30;3.78;;;17.40;58.10;;;;;;5008528;28;20151;-66
2023/02/19 10:47:49;;;;;;;5.60;2.15;;;17.60;54.30;;;;;;5010627;28;20548;-65
2023/02/19 10:50:38;;;;;;;5.95;1.77;;;18.10;51.40;;;;;;5011603;28;20040;-67
2023/02/19 10:53:04;;;;;;;8.63;1.90;;;18.80;50.40;;;;;;5011020;28;20117;-66
2023/02/19 10:55:34;;;;;;;4.25;1.23;;;19.80;49.20;;;;;;5011355;28;20481;-67
2023/02/19 10:58:33;;;;;;;5.60;1.70;;;20.90;47.00;;;;;;5018009;28;20041;-67
2023/02/19 11:01:10;;;;;;;6.57;2.05;;;21.80;44.20;;;;;;5012482;28;20433;-67
2023/02/19 11:03:36;;;;;;;3.58;1.42;;;22.10;43.10;;;;;;5009641;28;20091;-67
2023/02/19 11:06:05;;;;;;;7.30;1.08;;;21.80;42.50;;;;;;5010285;28;20095;-66
2023/02/19 11:08:53;;;;;;;4.10;1.30;;;20.80;42.50;;;;;;5008219;28;20048;-66
2023/02/19 11:11:37;;;;;;;2.30;0.82;;;20.30;45.00;;;;;;5010276;28;20640;-66
2023/02/19 11:14:14;;;;;;;5.10;0.88;;;20.20;44.50;;;;;;5011398;28;20099;-67
2023/02/19 11:16:43;;;;;;;3.70;0.77;;;20.40;44.80;;;;;;5008416;28;20033;-66
2023/02/19 11:19:30;;;;;;;3.30;0.90;;;20.90;42.80;;;;;;5007698;28;20533;-67
2023/02/19 11:21:58;;;;;;;2.90;0.70;;;21.30;42.20;;;;;;5018178;28;20037;-67
2023/02/19 11:24:39;;;;;;;1.60;0.90;;;20.20;42.90;;;;;;5010950;28;20818;-66
2023/02/19 11:27:14;;;;;;;2.53;0.50;;;18.60;45.60;;;;;;5019668;28;20041;-66
2023/02/19 11:29:40;;;;;;;4.93;0.85;;;16.80;48.20;;;;;;5013196;28;20021;-66
2023/02/19 11:32:26;;;;;;;4.47;0.80;;;15.30;51.60;;;;;;5015865;28;20436;-66
2023/02/19 11:35:23;;;;;;;5.80;1.02;;;13.70;57.40;;;;;;5013056;28;20072;-66
2023/02/19 11:38:00;;;;;;;4.35;0.65;;;12.60;60.50;;;;;;5014222;28;20041;-66
2023/02/19 11:40:43;;;;;;;4.13;0.77;;;11.90;63.90;;;;;;5011455;28;20468;-66
2023/02/19 11:43:35;;;;;;;4.50;0.77;;;11.40;65.30;;;;;;5016521;28;20069;-66
2023/02/19 11:46:31;;;;;;;1.83;0.55;;;11.10;67.80;;;;;;5016334;28;20036;-67
2023/02/19 11:49:13;;;;;;;3.53;0.88;;;10.90;68.70;;;;;;5015183;28;20037;-66
2023/02/19 11:51:54;;;;;;;2.92;0.60;;;10.80;69.60;;;;;;5017452;28;20041;-66
2023/02/19 11:54:42;;;;;;;8.18;0.80;;;10.70;68.80;;;;;;5014360;28;20549;-66
2023/02/19 11:57:32;;;;;;;4.57;0.80;;;10.60;69.80;;;;;;5016886;28;20038;-66
2023/02/19 12:00:07;;;;;;;5.38;0.75;;;10.60;72.10;;;;;;5017227;28;20485;-66
2023/02/19 12:03:00;;;;;;;2.20;0.80;;;10.80;73.50;;;;;;5015142;28;20140;-66
2023/02/19 12:05:50;;;;;;;9.32;0.82;;;11.10;75.00;;;;;;5013020;28;20092;-65
2023/02/19 12:08:16;;;;;;;3.15;0.80;;;11.40;74.10;;;;;;5016396;28;20147;-66
2023/02/19 12:11:02;;;;;;;2.60;0.60;;;11.60;71.30;;;;;;5014886;28;20112;-66
2023/02/19 12:14:25;;;;;;;2.78;0.63;;;11.60;69.70;;;;;;5015744;28;20053;-66
2023/02/19 12:17:01;;;;;;;2.95;0.50;;;11.40;67.90;;;;;;4937803;29;20687;-66
2023/02/19 12:19:32;;;;;;;3.53;0.80;;;11.20;67.70;;;;;;4938337;29;20070;-65
2023/02/19 12:22:25;;;;;;;3.22;0.85;;;11.00;68.50;;;;;;4994905;28;20120;-65
2023/02/19 12:25:18;;;;;;;2.75;1.05;;;10.90;69.90;;;;;;5014729;28;20048;-66
2023/02/19 12:28:19;;;;;;;2.20;0.57;;;10.60;68.10;;;;;;5017567;28;20025;-66
2023/02/19 12:31:05;;;;;;;2.38;0.50;;;10.40;69.60;;;;;;4999925;28;20037;-66
2023/02/19 12:34:32;;;;;;;4.00;0.70;;;10.20;70.40;;;;;;5010664;28;20144;-67
2023/02/19 12:37:16;;;;;;;2.20;0.52;;;10.00;68.90;;;;;;4932712;29;20118;-66
2023/02/19 12:39:59;;;;;;;5.22;0.90;;;10.00;71.70;;;;;;4934554;29;20045;-66
2023/02/19 12:42:46;;;;;;;4.90;0.75;;;9.90;72.70;;;;;;5001481;28;20053;-67
2023/02/19 12:45:51;;;;;;;2.05;0.80;;;9.90;71.60;;;;;;5013634;28;20728;-63
2023/02/19 12:48:45;;;;;;;3.90;0.80;;;10.00;71.60;;;;;;5006281;28;20102;-63
2023/02/19 12:51:17;;;;;;;5.35;0.63;;;10.10;72.80;;;;;;5011844;28;20537;-63
2023/02/19 12:54:10;;;;;;;2.70;1.05;;;10.20;71.20;;;;;;5009295;28;20033;-63
2023/02/19 12:57:09;;;;;;;3.40;0.60;;;10.20;71.00;;;;;;5010434;28;20042;-63
2023/02/19 13:00:06;;;;;;;5.13;1.08;;;10.30;71.00;;;;;;4993815;28;20041;-63
2023/02/19 13:02:50;;;;;;;3.05;0.50;;;10.20;69.50;;;;;;5012873;28;20073;-63
2023/02/19 13:05:57;;;;;;;3.95;0.88;;;10.10;68.40;;;;;;5013579;28;20149;-60
2023/02/19 13:08:55;;;;;;;1.40;0.60;;;10.10;69.10;;;;;;4961842;28;20053;-62
2023/02/19 13:11:38;;;;;;;4.18;0.50;;;10.10;68.90;;;;;;5011677;28;20288;-62
2023/02/19 13:14:23;;;;;;;5.88;1.17;;;10.30;69.60;;;;;;5009626;28;20037;-62
2023/02/19 13:16:55;;;;;;;4.47;0.63;;;10.30;67.60;;;;;;5013479;28;20766;-62
2023/02/19 13:19:20;;;;;;;6.30;1.52;;;10.20;66.80;;;;;;5009843;28;20040;-62
2023/02/19 13:24:41;;;;;;;3.30;0.57;;;10.00;68.90;;;;;;5010787;28;20025;-62
2023/02/19 13:27:39;;;;;;;3.50;0.55;;;9.90;69.80;;;;;;5010422;28;20694;-62
2023/02/19 13:30:22;;;;;;;1.55;0.40;;;9.80;70.60;;;;;;5004932;28;20041;-61
2023/02/19 13:33:11;;;;;;;2.17;0.43;;;9.70;70.70;;;;;;5006981;28;20033;-62
2023/02/19 13:36:13;;;;;;;2.80;0.40;;;9.60;71.40;;;;;;4968051;28;20049;-62
2023/02/19 13:38:42;;;;;;;3.38;1.13;;;9.60;71.00;;;;;;4972146;28;20041;-62
2023/02/19 13:41:50;;;;;;;2.80;0.60;;;9.70;71.10;;;;;;5015151;28;20033;-62
2023/02/19 13:44:21;;;;;;;3.05;0.45;;;10.00;70.80;;;;;;4999828;28;20045;-63
2023/02/19 13:46:49;;;;;;;3.40;0.80;;;10.10;70.00;;;;;;5009651;28;20083;-62
2023/02/19 13:49:26;;;;;;;1.85;0.60;;;10.30;69.40;;;;;;5016134;28;20042;-62
2023/02/19 13:52:00;;;;;;;3.30;1.30;;;10.40;67.70;;;;;;5011271;28;20029;-62